sensor_id;sensor_type;location;lat;lon;timestamp;P1;durP1;ratioP1;P2;durP2;ratioP2
73150;SDS011;61354;50.758;6.106;2022-08-19T00:01:32;15.60;;;11.40;;
73150;SDS011;61354;50.758;6.106;2022-08-19T00:04:00;15.43;;;11.57;;
73150;SDS011;61354;50.758;6.106;2022-08-19T00:06:27;14.68;;;11.20;;
73150;SDS011;61354;50.758;6.106;2022-08-19T00:08:54;13.82;;;11.45;;
73150;SDS011;61354;50.758;6.106;2022-08-19T00:11:20;15.02;;;11.48;;
73150;SDS011;61354;50.758;6.106;2022-08-19T00:13:46;14.85;;;11.45;;
73150;SDS011;61354;50.758;6.106;2022-08-19T00:16:13;13.57;;;10.95;;
73150;SDS011;61354;50.758;6.106;2022-08-19T00:18:40;15.60;;;11.27;;
73150;SDS011;61354;50.758;6.106;2022-08-19T00:21:06;13.40;;;10.82;;
73150;SDS011;61354;50.758;6.106;2022-08-19T00:23:34;12.95;;;10.73;;
73150;SDS011;61354;50.758;6.106;2022-08-19T00:26:01;15.13;;;11.02;;
73150;SDS011;61354;50.758;6.106;2022-08-19T00:28:30;13.20;;;11.45;;
73150;SDS011;61354;50.758;6.106;2022-08-19T00:30:56;16.02;;;10.90;;
73150;SDS011;61354;50.758;6.106;2022-08-19T00:33:21;12.90;;;10.02;;
73150;SDS011;61354;50.758;6.106;2022-08-19T00:35:47;13.18;;;9.98;;
73150;SDS011;61354;50.758;6.106;2022-08-19T00:38:12;14.45;;;11.73;;
73150;SDS011;61354;50.758;6.106;2022-08-19T00:40:38;14.43;;;10.98;;
73150;SDS011;61354;50.758;6.106;2022-08-19T00:43:08;14.43;;;10.93;;
73150;SDS011;61354;50.758;6.106;2022-08-19T00:45:38;16.85;;;11.57;;
73150;SDS011;61354;50.758;6.106;2022-08-19T00:48:07;13.80;;;10.82;;
73150;SDS011;61354;50.758;6.106;2022-08-19T00:50:33;16.23;;;12.25;;
73150;SDS011;61354;50.758;6.106;2022-08-19T00:53:00;15.20;;;12.10;;
73150;SDS011;61354;50.758;6.106;2022-08-19T00:55:29;15.02;;;11.93;;
73150;SDS011;61354;50.758;6.106;2022-08-19T00:58:04;13.55;;;10.73;;
73150;SDS011;61354;50.758;6.106;2022-08-19T01:00:33;13.70;;;10.50;;
73150;SDS011;61354;50.758;6.106;2022-08-19T01:03:10;14.30;;;10.13;;
73150;SDS011;61354;50.758;6.106;2022-08-19T01:05:41;14.98;;;10.80;;
73150;SDS011;61354;50.758;6.106;2022-08-19T01:08:08;15.35;;;10.18;;
73150;SDS011;61354;50.758;6.106;2022-08-19T01:10:39;13.05;;;10.27;;
73150;SDS011;61354;50.758;6.106;2022-08-19T01:15:35;15.98;;;10.05;;
73150;SDS011;61354;50.758;6.106;2022-08-19T01:18:08;13.23;;;10.43;;
73150;SDS011;61354;50.758;6.106;2022-08-19T01:20:37;14.40;;;10.13;;
73150;SDS011;61354;50.758;6.106;2022-08-19T01:23:03;13.05;;;10.15;;
73150;SDS011;61354;50.758;6.106;2022-08-19T01:25:31;14.38;;;11.05;;
73150;SDS011;61354;50.758;6.106;2022-08-19T01:28:02;13.63;;;10.15;;
73150;SDS011;61354;50.758;6.106;2022-08-19T01:30:29;13.32;;;9.77;;
73150;SDS011;61354;50.758;6.106;2022-08-19T01:32:57;15.82;;;10.18;;
73150;SDS011;61354;50.758;6.106;2022-08-19T01:35:26;15.15;;;11.02;;
73150;SDS011;61354;50.758;6.106;2022-08-19T01:37:58;14.70;;;10.65;;
73150;SDS011;61354;50.758;6.106;2022-08-19T01:40:26;14.23;;;11.07;;
73150;SDS011;61354;50.758;6.106;2022-08-19T01:42:54;15.55;;;10.85;;
73150;SDS011;61354;50.758;6.106;2022-08-19T01:45:21;17.75;;;11.88;;
73150;SDS011;61354;50.758;6.106;2022-08-19T01:47:48;15.45;;;11.70;;
73150;SDS011;61354;50.758;6.106;2022-08-19T01:50:14;17.50;;;11.55;;
73150;SDS011;61354;50.758;6.106;2022-08-19T01:52:40;16.65;;;11.40;;
73150;SDS011;61354;50.758;6.106;2022-08-19T01:55:08;16.80;;;11.68;;
73150;SDS011;61354;50.758;6.106;2022-08-19T01:57:37;16.50;;;11.93;;
73150;SDS011;61354;50.758;6.106;2022-08-19T02:00:07;18.42;;;12.43;;
73150;SDS011;61354;50.758;6.106;2022-08-19T02:02:36;18.98;;;12.93;;
73150;SDS011;61354;50.758;6.106;2022-08-19T02:05:01;17.10;;;12.30;;
73150;SDS011;61354;50.758;6.106;2022-08-19T02:07:27;15.55;;;11.77;;
73150;SDS011;61354;50.758;6.106;2022-08-19T02:09:54;14.65;;;11.43;;
73150;SDS011;61354;50.758;6.106;2022-08-19T02:12:20;15.75;;;11.75;;
73150;SDS011;61354;50.758;6.106;2022-08-19T02:14:46;16.35;;;12.55;;
73150;SDS011;61354;50.758;6.106;2022-08-19T02:17:12;16.92;;;12.30;;
73150;SDS011;61354;50.758;6.106;2022-08-19T02:19:37;16.17;;;12.13;;
73150;SDS011;61354;50.758;6.106;2022-08-19T02:22:03;15.90;;;11.88;;
73150;SDS011;61354;50.758;6.106;2022-08-19T02:24:28;16.88;;;12.88;;
73150;SDS011;61354;50.758;6.106;2022-08-19T02:26:54;19.55;;;13.00;;
73150;SDS011;61354;50.758;6.106;2022-08-19T02:29:19;17.70;;;12.40;;
73150;SDS011;61354;50.758;6.106;2022-08-19T02:31:45;16.65;;;11.85;;
73150;SDS011;61354;50.758;6.106;2022-08-19T02:34:11;18.02;;;12.95;;
73150;SDS011;61354;50.758;6.106;2022-08-19T02:36:37;18.88;;;12.82;;
73150;SDS011;61354;50.758;6.106;2022-08-19T02:39:02;21.05;;;14.55;;
73150;SDS011;61354;50.758;6.106;2022-08-19T02:41:29;20.45;;;14.00;;
73150;SDS011;61354;50.758;6.106;2022-08-19T02:43:58;19.15;;;13.52;;
73150;SDS011;61354;50.758;6.106;2022-08-19T02:46:26;19.25;;;13.25;;
73150;SDS011;61354;50.758;6.106;2022-08-19T02:48:55;21.13;;;14.10;;
73150;SDS011;61354;50.758;6.106;2022-08-19T02:51:24;20.10;;;13.63;;
73150;SDS011;61354;50.758;6.106;2022-08-19T02:53:52;19.20;;;13.68;;
73150;SDS011;61354;50.758;6.106;2022-08-19T02:56:17;19.95;;;14.40;;
73150;SDS011;61354;50.758;6.106;2022-08-19T02:58:44;20.88;;;13.95;;
73150;SDS011;61354;50.758;6.106;2022-08-19T03:01:10;19.20;;;14.48;;
73150;SDS011;61354;50.758;6.106;2022-08-19T03:03:37;19.08;;;14.15;;
73150;SDS011;61354;50.758;6.106;2022-08-19T03:06:04;21.15;;;14.48;;
73150;SDS011;61354;50.758;6.106;2022-08-19T03:08:38;22.50;;;14.18;;
73150;SDS011;61354;50.758;6.106;2022-08-19T03:11:05;20.30;;;14.35;;
73150;SDS011;61354;50.758;6.106;2022-08-19T03:13:31;19.60;;;14.23;;
73150;SDS011;61354;50.758;6.106;2022-08-19T03:15:57;18.08;;;13.13;;
73150;SDS011;61354;50.758;6.106;2022-08-19T03:18:23;20.67;;;14.45;;
73150;SDS011;61354;50.758;6.106;2022-08-19T03:20:50;20.38;;;14.90;;
73150;SDS011;61354;50.758;6.106;2022-08-19T03:23:19;19.20;;;13.60;;
73150;SDS011;61354;50.758;6.106;2022-08-19T03:26:04;19.20;;;13.95;;
73150;SDS011;61354;50.758;6.106;2022-08-19T03:28:46;20.80;;;15.73;;
73150;SDS011;61354;50.758;6.106;2022-08-19T03:31:15;19.02;;;13.30;;
73150;SDS011;61354;50.758;6.106;2022-08-19T03:33:42;20.35;;;14.15;;
73150;SDS011;61354;50.758;6.106;2022-08-19T03:36:19;19.58;;;13.88;;
73150;SDS011;61354;50.758;6.106;2022-08-19T03:38:51;19.80;;;13.88;;
73150;SDS011;61354;50.758;6.106;2022-08-19T03:41:20;21.17;;;13.98;;
73150;SDS011;61354;50.758;6.106;2022-08-19T03:43:49;22.17;;;15.57;;
73150;SDS011;61354;50.758;6.106;2022-08-19T03:46:17;22.48;;;14.98;;
73150;SDS011;61354;50.758;6.106;2022-08-19T03:49:10;25.65;;;16.50;;
73150;SDS011;61354;50.758;6.106;2022-08-19T03:51:37;25.27;;;17.60;;
73150;SDS011;61354;50.758;6.106;2022-08-19T03:54:05;26.77;;;17.60;;
73150;SDS011;61354;50.758;6.106;2022-08-19T03:56:33;24.63;;;16.55;;
73150;SDS011;61354;50.758;6.106;2022-08-19T03:59:00;25.48;;;17.33;;
73150;SDS011;61354;50.758;6.106;2022-08-19T04:01:28;25.77;;;17.20;;
73150;SDS011;61354;50.758;6.106;2022-08-19T04:03:57;24.27;;;16.85;;
73150;SDS011;61354;50.758;6.106;2022-08-19T04:06:26;24.67;;;16.77;;
73150;SDS011;61354;50.758;6.106;2022-08-19T04:08:54;25.85;;;17.55;;
73150;SDS011;61354;50.758;6.106;2022-08-19T04:11:25;24.58;;;16.33;;
73150;SDS011;61354;50.758;6.106;2022-08-19T04:13:51;27.20;;;18.10;;
73150;SDS011;61354;50.758;6.106;2022-08-19T04:16:19;28.40;;;16.95;;
73150;SDS011;61354;50.758;6.106;2022-08-19T04:18:46;26.63;;;17.35;;
73150;SDS011;61354;50.758;6.106;2022-08-19T04:21:16;26.08;;;16.70;;
73150;SDS011;61354;50.758;6.106;2022-08-19T04:23:44;30.10;;;19.52;;
73150;SDS011;61354;50.758;6.106;2022-08-19T04:26:17;29.65;;;17.98;;
73150;SDS011;61354;50.758;6.106;2022-08-19T04:28:45;32.83;;;19.88;;
73150;SDS011;61354;50.758;6.106;2022-08-19T04:31:15;31.92;;;19.55;;
73150;SDS011;61354;50.758;6.106;2022-08-19T04:33:41;30.45;;;18.13;;
73150;SDS011;61354;50.758;6.106;2022-08-19T04:36:07;32.50;;;19.65;;
73150;SDS011;61354;50.758;6.106;2022-08-19T04:38:35;32.03;;;19.17;;
73150;SDS011;61354;50.758;6.106;2022-08-19T04:41:02;31.80;;;19.52;;
73150;SDS011;61354;50.758;6.106;2022-08-19T04:43:46;35.90;;;20.02;;
73150;SDS011;61354;50.758;6.106;2022-08-19T04:46:15;33.00;;;18.27;;
73150;SDS011;61354;50.758;6.106;2022-08-19T04:48:42;36.20;;;20.50;;
73150;SDS011;61354;50.758;6.106;2022-08-19T04:51:09;36.85;;;20.08;;
73150;SDS011;61354;50.758;6.106;2022-08-19T04:53:38;40.45;;;20.38;;
73150;SDS011;61354;50.758;6.106;2022-08-19T04:56:07;40.78;;;21.80;;
73150;SDS011;61354;50.758;6.106;2022-08-19T04:58:35;44.10;;;23.15;;
73150;SDS011;61354;50.758;6.106;2022-08-19T05:15:09;38.78;;;20.95;;
73150;SDS011;61354;50.758;6.106;2022-08-19T05:17:45;42.13;;;21.48;;
73150;SDS011;61354;50.758;6.106;2022-08-19T05:20:45;38.67;;;19.90;;
73150;SDS011;61354;50.758;6.106;2022-08-19T05:23:45;38.08;;;20.58;;
73150;SDS011;61354;50.758;6.106;2022-08-19T05:29:12;40.13;;;21.33;;
73150;SDS011;61354;50.758;6.106;2022-08-19T05:31:45;40.70;;;22.45;;
73150;SDS011;61354;50.758;6.106;2022-08-19T05:34:14;38.85;;;21.60;;
73150;SDS011;61354;50.758;6.106;2022-08-19T05:36:42;38.38;;;21.65;;
73150;SDS011;61354;50.758;6.106;2022-08-19T05:39:11;37.03;;;20.45;;
73150;SDS011;61354;50.758;6.106;2022-08-19T05:41:42;36.88;;;20.65;;
73150;SDS011;61354;50.758;6.106;2022-08-19T05:44:13;35.00;;;19.35;;
73150;SDS011;61354;50.758;6.106;2022-08-19T05:46:39;33.90;;;19.63;;
73150;SDS011;61354;50.758;6.106;2022-08-19T05:49:06;34.88;;;19.73;;
73150;SDS011;61354;50.758;6.106;2022-08-19T05:51:32;30.60;;;18.70;;
73150;SDS011;61354;50.758;6.106;2022-08-19T05:54:04;31.00;;;18.33;;
73150;SDS011;61354;50.758;6.106;2022-08-19T05:56:30;31.73;;;18.13;;
73150;SDS011;61354;50.758;6.106;2022-08-19T05:58:57;31.25;;;17.98;;
73150;SDS011;61354;50.758;6.106;2022-08-19T06:01:24;29.75;;;17.58;;
73150;SDS011;61354;50.758;6.106;2022-08-19T06:03:51;30.55;;;17.27;;
73150;SDS011;61354;50.758;6.106;2022-08-19T06:06:17;31.70;;;18.70;;
73150;SDS011;61354;50.758;6.106;2022-08-19T06:08:42;29.45;;;17.67;;
73150;SDS011;61354;50.758;6.106;2022-08-19T06:13:49;31.85;;;18.15;;
73150;SDS011;61354;50.758;6.106;2022-08-19T06:16:21;32.22;;;18.55;;
73150;SDS011;61354;50.758;6.106;2022-08-19T06:18:56;29.35;;;17.55;;
73150;SDS011;61354;50.758;6.106;2022-08-19T06:21:25;28.83;;;16.02;;
73150;SDS011;61354;50.758;6.106;2022-08-19T06:23:52;33.70;;;18.13;;
73150;SDS011;61354;50.758;6.106;2022-08-19T06:26:19;31.35;;;19.02;;
73150;SDS011;61354;50.758;6.106;2022-08-19T06:28:45;30.73;;;17.60;;
73150;SDS011;61354;50.758;6.106;2022-08-19T06:31:13;30.90;;;17.65;;
73150;SDS011;61354;50.758;6.106;2022-08-19T06:33:41;31.08;;;17.50;;
73150;SDS011;61354;50.758;6.106;2022-08-19T06:36:08;30.55;;;17.42;;
73150;SDS011;61354;50.758;6.106;2022-08-19T06:38:41;31.90;;;17.73;;
73150;SDS011;61354;50.758;6.106;2022-08-19T06:41:06;33.05;;;17.60;;
73150;SDS011;61354;50.758;6.106;2022-08-19T06:43:32;30.20;;;18.20;;
73150;SDS011;61354;50.758;6.106;2022-08-19T06:45:57;31.10;;;16.23;;
73150;SDS011;61354;50.758;6.106;2022-08-19T06:48:24;31.15;;;18.02;;
73150;SDS011;61354;50.758;6.106;2022-08-19T06:50:49;29.02;;;16.88;;
73150;SDS011;61354;50.758;6.106;2022-08-19T06:53:16;33.17;;;17.75;;
73150;SDS011;61354;50.758;6.106;2022-08-19T06:55:44;32.58;;;18.48;;
73150;SDS011;61354;50.758;6.106;2022-08-19T06:58:10;31.33;;;17.25;;
73150;SDS011;61354;50.758;6.106;2022-08-19T07:00:36;31.00;;;17.50;;
73150;SDS011;61354;50.758;6.106;2022-08-19T07:03:01;27.92;;;16.55;;
73150;SDS011;61354;50.758;6.106;2022-08-19T07:05:28;27.70;;;15.43;;
73150;SDS011;61354;50.758;6.106;2022-08-19T07:07:54;27.85;;;14.98;;
73150;SDS011;61354;50.758;6.106;2022-08-19T07:10:19;29.67;;;15.85;;
73150;SDS011;61354;50.758;6.106;2022-08-19T07:12:46;23.77;;;14.48;;
73150;SDS011;61354;50.758;6.106;2022-08-19T07:15:12;29.17;;;16.30;;
73150;SDS011;61354;50.758;6.106;2022-08-19T07:17:38;27.83;;;15.75;;
73150;SDS011;61354;50.758;6.106;2022-08-19T07:20:06;29.05;;;16.98;;
73150;SDS011;61354;50.758;6.106;2022-08-19T07:22:41;31.20;;;17.38;;
73150;SDS011;61354;50.758;6.106;2022-08-19T07:25:08;32.38;;;17.23;;
73150;SDS011;61354;50.758;6.106;2022-08-19T07:27:34;35.22;;;18.85;;
73150;SDS011;61354;50.758;6.106;2022-08-19T07:30:00;32.88;;;17.60;;
73150;SDS011;61354;50.758;6.106;2022-08-19T07:32:26;34.42;;;19.92;;
73150;SDS011;61354;50.758;6.106;2022-08-19T07:34:51;34.63;;;19.20;;
73150;SDS011;61354;50.758;6.106;2022-08-19T07:37:17;37.60;;;19.77;;
73150;SDS011;61354;50.758;6.106;2022-08-19T07:39:43;37.60;;;20.70;;
73150;SDS011;61354;50.758;6.106;2022-08-19T07:42:09;36.80;;;19.75;;
73150;SDS011;61354;50.758;6.106;2022-08-19T07:44:36;41.28;;;22.52;;
73150;SDS011;61354;50.758;6.106;2022-08-19T07:47:02;40.63;;;22.83;;
73150;SDS011;61354;50.758;6.106;2022-08-19T07:49:29;39.85;;;21.42;;
73150;SDS011;61354;50.758;6.106;2022-08-19T07:51:56;40.22;;;21.55;;
73150;SDS011;61354;50.758;6.106;2022-08-19T07:54:25;39.03;;;22.27;;
73150;SDS011;61354;50.758;6.106;2022-08-19T07:56:52;37.65;;;20.40;;
73150;SDS011;61354;50.758;6.106;2022-08-19T07:59:18;39.70;;;22.27;;
73150;SDS011;61354;50.758;6.106;2022-08-19T08:01:45;36.38;;;20.77;;
73150;SDS011;61354;50.758;6.106;2022-08-19T08:04:11;37.08;;;20.13;;
73150;SDS011;61354;50.758;6.106;2022-08-19T08:06:56;32.78;;;18.85;;
73150;SDS011;61354;50.758;6.106;2022-08-19T08:09:40;30.40;;;17.60;;
73150;SDS011;61354;50.758;6.106;2022-08-19T08:12:12;35.22;;;18.02;;
73150;SDS011;61354;50.758;6.106;2022-08-19T08:14:47;29.20;;;17.70;;
73150;SDS011;61354;50.758;6.106;2022-08-19T08:17:15;29.60;;;17.63;;
73150;SDS011;61354;50.758;6.106;2022-08-19T08:19:43;32.08;;;18.40;;
73150;SDS011;61354;50.758;6.106;2022-08-19T08:22:10;31.92;;;19.80;;
73150;SDS011;61354;50.758;6.106;2022-08-19T08:24:57;33.90;;;20.30;;
73150;SDS011;61354;50.758;6.106;2022-08-19T08:27:26;34.50;;;20.70;;
73150;SDS011;61354;50.758;6.106;2022-08-19T08:38:10;35.20;;;20.77;;
73150;SDS011;61354;50.758;6.106;2022-08-19T08:43:20;37.85;;;22.02;;
73150;SDS011;61354;50.758;6.106;2022-08-19T08:46:06;37.75;;;22.98;;
73150;SDS011;61354;50.758;6.106;2022-08-19T08:51:26;36.30;;;22.60;;
73150;SDS011;61354;50.758;6.106;2022-08-19T08:53:58;36.92;;;23.10;;
73150;SDS011;61354;50.758;6.106;2022-08-19T08:56:24;38.70;;;23.38;;
73150;SDS011;61354;50.758;6.106;2022-08-19T09:01:16;35.63;;;21.67;;
73150;SDS011;61354;50.758;6.106;2022-08-19T09:03:42;35.00;;;20.92;;
73150;SDS011;61354;50.758;6.106;2022-08-19T09:12:03;34.95;;;21.70;;
73150;SDS011;61354;50.758;6.106;2022-08-19T09:14:35;37.58;;;21.38;;
73150;SDS011;61354;50.758;6.106;2022-08-19T09:32:00;32.97;;;17.92;;
73150;SDS011;61354;50.758;6.106;2022-08-19T09:45:10;28.55;;;16.20;;
73150;SDS011;61354;50.758;6.106;2022-08-19T09:47:35;27.90;;;15.40;;
73150;SDS011;61354;50.758;6.106;2022-08-19T09:50:06;30.70;;;15.13;;
73150;SDS011;61354;50.758;6.106;2022-08-19T09:52:34;27.25;;;15.43;;
73150;SDS011;61354;50.758;6.106;2022-08-19T09:55:04;28.73;;;15.88;;
73150;SDS011;61354;50.758;6.106;2022-08-19T09:57:31;28.75;;;17.13;;
73150;SDS011;61354;50.758;6.106;2022-08-19T09:59:57;30.75;;;16.75;;
73150;SDS011;61354;50.758;6.106;2022-08-19T10:02:22;27.13;;;16.50;;
73150;SDS011;61354;50.758;6.106;2022-08-19T10:04:48;28.02;;;16.13;;
73150;SDS011;61354;50.758;6.106;2022-08-19T10:07:32;25.20;;;16.02;;
73150;SDS011;61354;50.758;6.106;2022-08-19T10:09:57;35.17;;;19.42;;
73150;SDS011;61354;50.758;6.106;2022-08-19T10:12:23;28.55;;;16.38;;
73150;SDS011;61354;50.758;6.106;2022-08-19T10:14:48;27.30;;;15.35;;
73150;SDS011;61354;50.758;6.106;2022-08-19T10:17:16;26.58;;;15.05;;
73150;SDS011;61354;50.758;6.106;2022-08-19T10:19:45;25.83;;;15.57;;
73150;SDS011;61354;50.758;6.106;2022-08-19T10:22:12;27.55;;;15.45;;
73150;SDS011;61354;50.758;6.106;2022-08-19T10:24:38;29.90;;;15.60;;
73150;SDS011;61354;50.758;6.106;2022-08-19T10:27:04;27.58;;;16.00;;
73150;SDS011;61354;50.758;6.106;2022-08-19T10:29:43;25.95;;;14.30;;
73150;SDS011;61354;50.758;6.106;2022-08-19T10:32:09;27.17;;;16.20;;
73150;SDS011;61354;50.758;6.106;2022-08-19T10:34:44;23.40;;;14.93;;
73150;SDS011;61354;50.758;6.106;2022-08-19T10:37:09;27.65;;;14.32;;
73150;SDS011;61354;50.758;6.106;2022-08-19T10:39:35;21.98;;;12.38;;
73150;SDS011;61354;50.758;6.106;2022-08-19T10:42:07;22.88;;;13.60;;
73150;SDS011;61354;50.758;6.106;2022-08-19T10:44:35;20.60;;;11.75;;
73150;SDS011;61354;50.758;6.106;2022-08-19T10:47:01;18.05;;;10.25;;
73150;SDS011;61354;50.758;6.106;2022-08-19T10:49:28;24.20;;;12.77;;
73150;SDS011;61354;50.758;6.106;2022-08-19T10:51:54;22.27;;;12.23;;
73150;SDS011;61354;50.758;6.106;2022-08-19T10:54:39;22.98;;;12.45;;
73150;SDS011;61354;50.758;6.106;2022-08-19T10:57:23;21.88;;;12.65;;
73150;SDS011;61354;50.758;6.106;2022-08-19T10:59:54;19.23;;;11.50;;
73150;SDS011;61354;50.758;6.106;2022-08-19T11:02:22;24.25;;;13.32;;
73150;SDS011;61354;50.758;6.106;2022-08-19T11:04:48;21.70;;;12.18;;
73150;SDS011;61354;50.758;6.106;2022-08-19T11:07:15;20.25;;;11.70;;
73150;SDS011;61354;50.758;6.106;2022-08-19T11:09:41;23.02;;;13.90;;
73150;SDS011;61354;50.758;6.106;2022-08-19T11:12:07;24.13;;;13.90;;
73150;SDS011;61354;50.758;6.106;2022-08-19T11:14:33;24.67;;;13.90;;
73150;SDS011;61354;50.758;6.106;2022-08-19T11:17:00;27.42;;;15.75;;
73150;SDS011;61354;50.758;6.106;2022-08-19T11:19:26;27.48;;;15.10;;
73150;SDS011;61354;50.758;6.106;2022-08-19T11:21:52;24.08;;;14.57;;
73150;SDS011;61354;50.758;6.106;2022-08-19T11:24:20;24.13;;;14.38;;
73150;SDS011;61354;50.758;6.106;2022-08-19T11:26:48;21.83;;;13.20;;
73150;SDS011;61354;50.758;6.106;2022-08-19T11:29:17;22.95;;;12.90;;
73150;SDS011;61354;50.758;6.106;2022-08-19T11:31:45;27.63;;;15.55;;
73150;SDS011;61354;50.758;6.106;2022-08-19T11:34:17;26.55;;;13.88;;
73150;SDS011;61354;50.758;6.106;2022-08-19T11:36:45;25.90;;;14.75;;
73150;SDS011;61354;50.758;6.106;2022-08-19T11:39:14;23.35;;;13.05;;
73150;SDS011;61354;50.758;6.106;2022-08-19T11:41:41;23.05;;;13.20;;
73150;SDS011;61354;50.758;6.106;2022-08-19T11:44:07;25.38;;;14.80;;
73150;SDS011;61354;50.758;6.106;2022-08-19T11:46:34;23.88;;;13.50;;
73150;SDS011;61354;50.758;6.106;2022-08-19T11:49:00;26.55;;;14.77;;
73150;SDS011;61354;50.758;6.106;2022-08-19T11:51:28;24.40;;;13.73;;
73150;SDS011;61354;50.758;6.106;2022-08-19T11:53:55;22.63;;;13.02;;
73150;SDS011;61354;50.758;6.106;2022-08-19T11:56:22;21.50;;;11.88;;
73150;SDS011;61354;50.758;6.106;2022-08-19T11:58:49;19.60;;;11.65;;
73150;SDS011;61354;50.758;6.106;2022-08-19T12:01:16;16.25;;;9.55;;
73150;SDS011;61354;50.758;6.106;2022-08-19T12:03:43;16.92;;;9.55;;
73150;SDS011;61354;50.758;6.106;2022-08-19T12:06:11;19.95;;;11.00;;
73150;SDS011;61354;50.758;6.106;2022-08-19T12:08:39;18.95;;;10.32;;
73150;SDS011;61354;50.758;6.106;2022-08-19T12:11:09;19.73;;;10.50;;
73150;SDS011;61354;50.758;6.106;2022-08-19T12:13:35;16.58;;;9.07;;
73150;SDS011;61354;50.758;6.106;2022-08-19T12:16:09;17.80;;;9.18;;
73150;SDS011;61354;50.758;6.106;2022-08-19T12:18:37;13.95;;;9.25;;
73150;SDS011;61354;50.758;6.106;2022-08-19T12:21:03;16.67;;;8.90;;
73150;SDS011;61354;50.758;6.106;2022-08-19T12:23:29;13.52;;;8.50;;
73150;SDS011;61354;50.758;6.106;2022-08-19T12:25:55;11.40;;;7.50;;
73150;SDS011;61354;50.758;6.106;2022-08-19T12:28:23;10.63;;;6.18;;
73150;SDS011;61354;50.758;6.106;2022-08-19T12:30:50;11.35;;;6.60;;
73150;SDS011;61354;50.758;6.106;2022-08-19T12:33:17;9.90;;;6.50;;
73150;SDS011;61354;50.758;6.106;2022-08-19T12:35:43;10.70;;;6.82;;
73150;SDS011;61354;50.758;6.106;2022-08-19T12:38:10;10.27;;;6.18;;
73150;SDS011;61354;50.758;6.106;2022-08-19T12:40:36;8.88;;;5.90;;
73150;SDS011;61354;50.758;6.106;2022-08-19T12:43:02;7.05;;;4.03;;
73150;SDS011;61354;50.758;6.106;2022-08-19T12:45:32;7.60;;;3.90;;
73150;SDS011;61354;50.758;6.106;2022-08-19T12:47:57;5.65;;;3.70;;
73150;SDS011;61354;50.758;6.106;2022-08-19T12:50:23;6.53;;;3.63;;
73150;SDS011;61354;50.758;6.106;2022-08-19T12:52:48;6.00;;;3.38;;
73150;SDS011;61354;50.758;6.106;2022-08-19T12:58:11;7.43;;;3.38;;
73150;SDS011;61354;50.758;6.106;2022-08-19T13:00:37;5.97;;;3.30;;
73150;SDS011;61354;50.758;6.106;2022-08-19T13:03:03;6.63;;;3.60;;
73150;SDS011;61354;50.758;6.106;2022-08-19T13:05:44;6.78;;;3.20;;
73150;SDS011;61354;50.758;6.106;2022-08-19T13:08:09;6.32;;;2.90;;
73150;SDS011;61354;50.758;6.106;2022-08-19T13:10:36;5.00;;;3.00;;
73150;SDS011;61354;50.758;6.106;2022-08-19T13:13:05;4.90;;;3.50;;
73150;SDS011;61354;50.758;6.106;2022-08-19T13:15:36;6.32;;;3.53;;
73150;SDS011;61354;50.758;6.106;2022-08-19T13:18:05;6.40;;;3.22;;
73150;SDS011;61354;50.758;6.106;2022-08-19T13:20:31;5.22;;;2.95;;
73150;SDS011;61354;50.758;6.106;2022-08-19T13:22:57;5.55;;;2.60;;
73150;SDS011;61354;50.758;6.106;2022-08-19T13:25:23;5.30;;;2.80;;
73150;SDS011;61354;50.758;6.106;2022-08-19T13:27:50;4.65;;;2.70;;
73150;SDS011;61354;50.758;6.106;2022-08-19T13:30:16;4.80;;;2.60;;
73150;SDS011;61354;50.758;6.106;2022-08-19T13:33:02;4.80;;;2.20;;
73150;SDS011;61354;50.758;6.106;2022-08-19T13:36:00;4.05;;;2.75;;
73150;SDS011;61354;50.758;6.106;2022-08-19T13:38:45;5.18;;;2.30;;
73150;SDS011;61354;50.758;6.106;2022-08-19T13:41:10;5.00;;;2.20;;
73150;SDS011;61354;50.758;6.106;2022-08-19T13:44:14;3.70;;;2.10;;
73150;SDS011;61354;50.758;6.106;2022-08-19T13:46:43;50.92;;;5.93;;
73150;SDS011;61354;50.758;6.106;2022-08-19T13:49:10;554.88;;;70.10;;
73150;SDS011;61354;50.758;6.106;2022-08-19T13:51:38;10.77;;;2.50;;
73150;SDS011;61354;50.758;6.106;2022-08-19T13:54:05;153.02;;;17.05;;
73150;SDS011;61354;50.758;6.106;2022-08-19T13:56:32;9.77;;;2.80;;
73150;SDS011;61354;50.758;6.106;2022-08-19T13:58:57;5.85;;;2.33;;
73150;SDS011;61354;50.758;6.106;2022-08-19T14:01:23;4.90;;;2.55;;
73150;SDS011;61354;50.758;6.106;2022-08-19T14:03:49;3.30;;;2.00;;
73150;SDS011;61354;50.758;6.106;2022-08-19T14:06:15;6.10;;;2.47;;
73150;SDS011;61354;50.758;6.106;2022-08-19T14:08:42;5.05;;;2.50;;
73150;SDS011;61354;50.758;6.106;2022-08-19T14:11:08;4.65;;;2.63;;
73150;SDS011;61354;50.758;6.106;2022-08-19T14:13:34;5.35;;;2.47;;
73150;SDS011;61354;50.758;6.106;2022-08-19T14:15:59;4.28;;;3.00;;
73150;SDS011;61354;50.758;6.106;2022-08-19T14:18:25;5.25;;;2.88;;
73150;SDS011;61354;50.758;6.106;2022-08-19T14:20:51;4.78;;;2.28;;
73150;SDS011;61354;50.758;6.106;2022-08-19T14:23:17;4.43;;;2.45;;
73150;SDS011;61354;50.758;6.106;2022-08-19T14:25:43;4.05;;;2.45;;
73150;SDS011;61354;50.758;6.106;2022-08-19T14:28:09;7.68;;;3.47;;
73150;SDS011;61354;50.758;6.106;2022-08-19T14:30:36;4.22;;;2.70;;
73150;SDS011;61354;50.758;6.106;2022-08-19T14:33:03;5.13;;;3.10;;
73150;SDS011;61354;50.758;6.106;2022-08-19T14:35:31;5.07;;;2.70;;
73150;SDS011;61354;50.758;6.106;2022-08-19T14:38:01;3.90;;;2.85;;
73150;SDS011;61354;50.758;6.106;2022-08-19T14:40:29;6.00;;;3.17;;
73150;SDS011;61354;50.758;6.106;2022-08-19T14:42:57;6.32;;;2.80;;
73150;SDS011;61354;50.758;6.106;2022-08-19T14:45:29;5.18;;;2.80;;
73150;SDS011;61354;50.758;6.106;2022-08-19T14:48:00;5.40;;;3.00;;
73150;SDS011;61354;50.758;6.106;2022-08-19T14:50:25;5.43;;;2.50;;
73150;SDS011;61354;50.758;6.106;2022-08-19T14:52:57;5.63;;;2.72;;
73150;SDS011;61354;50.758;6.106;2022-08-19T14:55:24;6.25;;;2.92;;
73150;SDS011;61354;50.758;6.106;2022-08-19T14:57:50;6.07;;;2.83;;
73150;SDS011;61354;50.758;6.106;2022-08-19T15:00:16;5.55;;;3.00;;
73150;SDS011;61354;50.758;6.106;2022-08-19T15:02:42;5.72;;;2.78;;
73150;SDS011;61354;50.758;6.106;2022-08-19T15:05:09;6.65;;;2.90;;
73150;SDS011;61354;50.758;6.106;2022-08-19T15:07:35;6.80;;;3.80;;
73150;SDS011;61354;50.758;6.106;2022-08-19T15:10:02;3.92;;;2.45;;
73150;SDS011;61354;50.758;6.106;2022-08-19T15:12:28;6.00;;;2.88;;
73150;SDS011;61354;50.758;6.106;2022-08-19T15:14:54;5.32;;;2.70;;
73150;SDS011;61354;50.758;6.106;2022-08-19T15:17:20;4.88;;;2.78;;
73150;SDS011;61354;50.758;6.106;2022-08-19T15:19:45;5.22;;;2.38;;
73150;SDS011;61354;50.758;6.106;2022-08-19T15:22:11;7.25;;;2.80;;
73150;SDS011;61354;50.758;6.106;2022-08-19T15:24:37;5.90;;;2.80;;
73150;SDS011;61354;50.758;6.106;2022-08-19T15:27:03;5.93;;;2.80;;
73150;SDS011;61354;50.758;6.106;2022-08-19T15:29:30;6.05;;;3.35;;
73150;SDS011;61354;50.758;6.106;2022-08-19T15:31:57;6.10;;;2.80;;
73150;SDS011;61354;50.758;6.106;2022-08-19T15:34:23;5.50;;;2.95;;
73150;SDS011;61354;50.758;6.106;2022-08-19T15:36:50;7.10;;;3.17;;
73150;SDS011;61354;50.758;6.106;2022-08-19T15:39:17;5.13;;;2.80;;
73150;SDS011;61354;50.758;6.106;2022-08-19T15:41:43;6.22;;;3.75;;
73150;SDS011;61354;50.758;6.106;2022-08-19T15:44:11;11.35;;;7.35;;
73150;SDS011;61354;50.758;6.106;2022-08-19T15:46:39;37.72;;;31.45;;